createdAt,value
2019-05-19T00:01:31.477Z,99827.73
2019-05-19T00:04:02.086Z,99833.38
2019-05-19T00:06:32.738Z,99839.88
2019-05-19T00:09:05.390Z,99841.38
2019-05-19T00:11:36.230Z,99846.79
2019-05-19T00:14:06.643Z,99842.61
2019-05-19T00:16:38.549Z,99838.50
2019-05-19T00:19:09.506Z,99844.88
2019-05-19T00:21:41.287Z,99841.66
2019-05-19T00:24:11.943Z,99838.28
2019-05-19T00:26:42.608Z,99834.88
2019-05-19T00:29:13.968Z,99842.23
2019-05-19T00:31:46.475Z,99838.66
2019-05-19T00:34:16.764Z,99840.57
2019-05-19T00:36:47.053Z,99839.88
2019-05-19T00:39:17.317Z,99850.84
2019-05-19T00:41:47.512Z,99852.16
2019-05-19T00:44:19.125Z,99844.50
2019-05-19T00:46:50.046Z,99846.85
2019-05-19T00:49:22.140Z,99850.91
2019-05-19T00:51:52.980Z,99842.23
2019-05-19T00:54:23.383Z,99847.89
2019-05-19T00:56:55.332Z,99845.91
2019-05-19T00:59:27.518Z,99846.09
2019-05-19T01:01:58.781Z,99842.98
2019-05-19T01:04:29.185Z,99844.30
2019-05-19T01:06:59.408Z,99839.50
2019-05-19T01:09:29.638Z,99837.72
2019-05-19T01:11:59.859Z,99837.44
2019-05-19T01:14:30.162Z,99840.07
2019-05-19T01:17:00.734Z,99839.03
2019-05-19T01:19:31.402Z,99837.34
2019-05-19T01:22:02.343Z,99838.94
2019-05-19T01:24:32.621Z,99833.77
2019-05-19T01:27:02.813Z,99847.32
2019-05-19T01:29:33.076Z,99849.11
2019-05-19T01:32:03.805Z,99848.55
2019-05-19T01:34:34.092Z,99840.73
2019-05-19T01:37:04.746Z,99842.42
2019-05-19T01:39:35.074Z,99843.84
2019-05-19T01:42:05.386Z,99841.48
2019-05-19T01:44:35.700Z,99840.17
2019-05-19T01:47:06.330Z,99842.98
2019-05-19T01:49:36.877Z,99846.38
2019-05-19T01:52:07.141Z,99844.30
2019-05-19T01:54:37.434Z,99840.83
2019-05-19T01:57:07.673Z,99850.70
2019-05-19T01:59:38.364Z,99848.45
2019-05-19T02:02:08.717Z,99850.14
2019-05-19T02:04:38.966Z,99849.02
2019-05-19T02:07:09.408Z,99849.58
2019-05-19T02:09:40.106Z,99845.34
2019-05-19T02:12:10.763Z,99847.51
2019-05-19T02:14:42.070Z,99843.74
2019-05-19T02:17:12.382Z,99841.95
2019-05-19T02:19:43.490Z,99845.44
2019-05-19T02:22:13.895Z,99849.77
2019-05-19T02:24:44.133Z,99849.86
2019-05-19T02:27:14.908Z,99832.81
2019-05-19T02:29:45.301Z,99829.99
2019-05-19T02:32:15.526Z,99826.41
2019-05-19T02:34:45.768Z,99842.04
2019-05-19T02:37:15.980Z,99841.48
2019-05-19T02:39:46.263Z,99842.61
2019-05-19T02:42:19.173Z,99837.53
2019-05-19T02:44:52.858Z,99833.01
2019-05-19T02:47:26.912Z,99837.16
2019-05-19T02:50:00.709Z,99839.31
2019-05-19T02:52:33.560Z,99837.72
2019-05-19T02:55:05.760Z,99837.15
2019-05-19T02:57:38.774Z,99838.09
2019-05-19T03:00:11.154Z,99842.61
2019-05-19T03:02:42.605Z,99839.97
2019-05-19T03:05:14.488Z,99835.17
2019-05-19T03:07:45.149Z,99835.27
2019-05-19T03:10:15.861Z,99832.06
2019-05-19T03:12:46.538Z,99830.55
2019-05-19T03:15:17.451Z,99820.30
2019-05-19T03:17:47.770Z,99822.46
2019-05-19T03:20:17.995Z,99817.56
2019-05-19T03:22:48.269Z,99813.05
2019-05-19T03:25:18.538Z,99816.06
2019-05-19T03:27:48.967Z,99812.77
2019-05-19T03:30:27.050Z,99813.05
2019-05-19T03:33:01.565Z,99816.05
2019-05-19T03:35:32.618Z,99817.56
2019-05-19T03:38:02.937Z,99815.30
2019-05-19T03:40:33.165Z,99811.18
2019-05-19T03:43:03.533Z,99815.29
2019-05-19T03:45:33.740Z,99822.07
2019-05-19T03:48:04.349Z,99822.82
2019-05-19T03:50:34.648Z,99823.75
2019-05-19T03:53:05.260Z,99823.75
2019-05-19T03:55:37.605Z,99824.98
2019-05-19T03:58:08.252Z,99834.67
2019-05-19T04:00:38.854Z,99835.70
2019-05-19T04:03:09.052Z,99830.51
2019-05-19T04:05:39.678Z,99822.59
2019-05-19T04:08:10.039Z,99830.12
2019-05-19T04:10:40.322Z,99826.48
2019-05-19T04:13:11.011Z,99832.48
2019-05-19T04:15:41.297Z,99818.69
2019-05-19T04:18:11.628Z,99813.76
2019-05-19T04:20:42.210Z,99821.08
2019-05-19T04:23:12.513Z,99822.37
2019-05-19T04:25:43.126Z,99828.78
2019-05-19T04:28:13.444Z,99819.16
2019-05-19T04:30:43.870Z,99813.83
2019-05-19T04:33:14.119Z,99818.21
2019-05-19T04:35:44.694Z,99819.55
2019-05-19T04:38:15.445Z,99811.20
2019-05-19T04:40:45.723Z,99808.07
2019-05-19T04:43:17.235Z,99805.94
2019-05-19T04:45:47.527Z,99808.28
2019-05-19T04:48:18.106Z,99807.31
2019-05-19T04:50:49.921Z,99806.11
2019-05-19T04:53:22.074Z,99800.95
2019-05-19T04:55:53.424Z,99804.24
2019-05-19T04:58:24.023Z,99797.39
2019-05-19T05:00:57.058Z,99806.91
2019-05-19T05:03:27.368Z,99798.23
2019-05-19T05:05:57.613Z,99798.48
2019-05-19T05:08:30.616Z,99799.48
2019-05-19T05:11:00.226Z,99809.50
2019-05-19T05:13:34.010Z,99805.16
2019-05-19T05:16:04.464Z,99812.02
2019-05-19T05:18:35.079Z,99809.73
2019-05-19T05:21:07.888Z,99811.28
2019-05-19T05:23:38.133Z,99814.64
2019-05-19T05:26:11.271Z,99807.05
2019-05-19T05:28:43.512Z,99818.55
2019-05-19T05:31:15.592Z,99814.14
2019-05-19T05:33:48.252Z,99808.18
2019-05-19T05:36:19.134Z,99813.02
2019-05-19T05:38:49.533Z,99801.19
2019-05-19T05:41:20.231Z,99807.75
2019-05-19T05:43:50.632Z,99801.95
2019-05-19T05:46:21.211Z,99806.04
2019-05-19T05:48:51.605Z,99810.23
2019-05-19T05:51:21.825Z,99805.78
2019-05-19T05:53:54.784Z,99806.04
2019-05-19T05:56:25.080Z,99796.33
2019-05-19T05:58:55.358Z,99799.96
2019-05-19T06:01:25.825Z,99786.25
2019-05-19T06:03:56.518Z,99796.62
2019-05-19T06:06:28.602Z,99799.66
2019-05-19T06:08:59.996Z,99803.47
2019-05-19T06:11:30.199Z,99804.08
2019-05-19T06:14:00.805Z,99800.34
2019-05-19T06:16:45.087Z,99796.25
2019-05-19T06:19:15.514Z,99794.92
2019-05-19T06:21:46.174Z,99788.53
2019-05-19T06:24:16.864Z,99784.67
2019-05-19T06:26:49.110Z,99788.77
2019-05-19T06:29:19.480Z,99778.98
2019-05-19T06:31:49.738Z,99786.93
2019-05-19T06:34:20.298Z,99793.56
2019-05-19T06:36:55.168Z,99800.19
2019-05-19T06:39:25.972Z,99798.27
2019-05-19T06:41:58.426Z,99804.54
2019-05-19T06:44:30.097Z,99816.13
2019-05-19T06:47:01.587Z,99815.78
2019-05-19T06:49:35.173Z,99800.22
2019-05-19T06:52:05.560Z,99801.07
2019-05-19T06:54:35.776Z,99801.55
2019-05-19T06:57:06.228Z,99804.09
2019-05-19T06:59:36.525Z,99801.91
2019-05-19T07:02:07.609Z,99806.73
2019-05-19T07:04:37.912Z,99812.03
2019-05-19T07:07:08.412Z,99804.06
2019-05-19T07:09:39.090Z,99809.38
2019-05-19T07:12:09.764Z,99802.87
2019-05-19T07:14:41.345Z,99807.34
2019-05-19T07:17:13.296Z,99808.05
2019-05-19T07:19:43.529Z,99807.67
2019-05-19T07:22:13.813Z,99806.15
2019-05-19T07:24:44.944Z,99802.26
2019-05-19T07:27:15.379Z,99809.48
2019-05-19T07:29:48.287Z,99807.17
2019-05-19T07:32:19.058Z,99809.70
2019-05-19T07:34:51.267Z,99808.00
2019-05-19T07:37:22.596Z,99806.98
2019-05-19T07:39:52.908Z,99797.86
2019-05-19T07:42:23.498Z,99804.38
2019-05-19T07:44:54.955Z,99809.75
2019-05-19T07:47:25.591Z,99806.95
2019-05-19T07:49:56.239Z,99801.66
2019-05-19T07:52:28.291Z,99803.09
2019-05-19T07:54:58.942Z,99805.63
2019-05-19T07:57:34.022Z,99808.33
2019-05-19T08:00:04.853Z,99813.25
2019-05-19T08:02:35.549Z,99818.69
2019-05-19T08:05:06.581Z,99814.91
2019-05-19T08:07:40.061Z,99811.84
2019-05-19T08:10:11.285Z,99814.20
2019-05-19T08:12:41.537Z,99825.98
2019-05-19T08:15:12.061Z,99825.84
2019-05-19T08:17:42.332Z,99825.37
2019-05-19T08:20:13.687Z,99821.60
2019-05-19T08:22:44.543Z,99825.59
2019-05-19T08:25:20.961Z,99817.77
2019-05-19T08:27:51.701Z,99818.04
2019-05-19T08:30:22.189Z,99812.00
2019-05-19T08:32:52.577Z,99820.39
2019-05-19T08:35:22.815Z,99822.21
2019-05-19T08:37:54.758Z,99815.27
2019-05-19T08:40:25.980Z,99816.30
2019-05-19T08:42:57.449Z,99821.09
2019-05-19T08:45:28.248Z,99820.48
2019-05-19T08:47:58.599Z,99826.13
2019-05-19T08:50:29.024Z,99827.41
2019-05-19T08:52:59.689Z,99830.34
2019-05-19T08:55:30.271Z,99829.09
2019-05-19T08:58:00.735Z,99830.83
2019-05-19T09:00:38.064Z,99841.98
2019-05-19T09:03:06.466Z,99825.42
2019-05-19T09:05:37.220Z,99827.56
2019-05-19T09:08:07.607Z,99825.11
2019-05-19T09:10:38.038Z,99831.84
2019-05-19T09:13:10.101Z,99829.02
2019-05-19T09:15:40.942Z,99827.91
2019-05-19T09:18:13.121Z,99825.61
2019-05-19T09:20:43.768Z,99809.26
2019-05-19T09:23:15.927Z,99811.54
2019-05-19T09:25:49.386Z,99807.81
2019-05-19T09:28:20.211Z,99814.44
2019-05-19T09:30:50.834Z,99816.40
2019-05-19T09:33:21.591Z,99814.38
2019-05-19T09:35:51.979Z,99814.66
2019-05-19T09:38:22.555Z,99818.14
2019-05-19T09:40:53.202Z,99814.16
2019-05-19T09:43:26.741Z,99805.75
2019-05-19T09:45:57.647Z,99819.38
2019-05-19T09:48:30.580Z,99811.64
2019-05-19T09:51:00.929Z,99822.16
2019-05-19T09:53:31.538Z,99831.13
2019-05-19T09:56:02.404Z,99832.61
2019-05-19T09:58:33.042Z,99840.69
2019-05-19T10:01:03.356Z,99841.17
2019-05-19T10:03:34.157Z,99828.59
2019-05-19T10:06:05.153Z,99827.76
2019-05-19T10:08:39.671Z,99832.79
2019-05-19T10:11:25.765Z,99830.95
2019-05-19T10:13:56.158Z,99825.40
2019-05-19T10:16:28.944Z,99828.20
2019-05-19T10:19:02.827Z,99824.17
2019-05-19T10:21:36.277Z,99811.44
2019-05-19T10:24:06.665Z,99815.75
2019-05-19T10:26:37.237Z,99815.21
2019-05-19T10:29:07.552Z,99807.05
2019-05-19T10:32:02.597Z,99812.00
2019-05-19T10:34:40.071Z,99813.05
2019-05-19T10:37:20.704Z,99802.11
2019-05-19T10:39:56.430Z,99807.66
2019-05-19T10:42:28.218Z,99806.86
2019-05-19T10:45:03.383Z,99802.89
2019-05-19T10:47:31.828Z,99809.21
2019-05-19T10:50:02.209Z,99808.18
2019-05-19T10:52:32.462Z,99815.06
2019-05-19T10:55:03.414Z,99820.33
2019-05-19T10:57:35.332Z,99813.72
2019-05-19T11:00:08.497Z,99810.08
2019-05-19T11:02:38.782Z,99808.99
2019-05-19T11:05:11.292Z,99804.78
2019-05-19T11:07:41.470Z,99806.34
2019-05-19T11:10:12.243Z,99807.11
2019-05-19T11:12:42.897Z,99809.53
2019-05-19T11:15:13.484Z,99812.30
2019-05-19T11:17:43.880Z,99797.19
2019-05-19T11:20:14.314Z,99792.04
2019-05-19T11:22:44.721Z,99777.03
2019-05-19T11:25:15.034Z,99782.69
2019-05-19T11:27:45.273Z,99790.53
2019-05-19T11:30:15.628Z,99783.27
2019-05-19T11:32:45.967Z,99781.37
2019-05-19T11:35:16.220Z,99782.92
2019-05-19T11:37:46.612Z,99784.77
2019-05-19T11:40:17.134Z,99791.06
2019-05-19T11:42:47.477Z,99783.38
2019-05-19T11:45:17.944Z,99775.38
2019-05-19T11:47:48.616Z,99775.89
2019-05-19T11:50:20.656Z,99785.13
2019-05-19T11:52:51.569Z,99777.12
2019-05-19T11:55:23.296Z,99785.66
2019-05-19T11:57:54.003Z,99778.40
2019-05-19T12:00:24.363Z,99785.08
2019-05-19T12:02:54.667Z,99782.09
2019-05-19T12:05:24.992Z,99776.30
2019-05-19T12:07:55.426Z,99777.89
2019-05-19T12:10:26.074Z,99782.04
2019-05-19T12:12:56.697Z,99783.28
2019-05-19T12:15:27.438Z,99781.10
2019-05-19T12:17:59.364Z,99776.96
2019-05-19T12:20:30.436Z,99776.10
2019-05-19T12:23:00.907Z,99777.75
2019-05-19T12:25:32.299Z,99784.78
2019-05-19T12:28:02.730Z,99780.02
2019-05-19T12:30:33.138Z,99772.47
2019-05-19T12:33:04.802Z,99769.80
2019-05-19T12:35:35.453Z,99764.53
2019-05-19T12:38:05.837Z,99762.23
2019-05-19T12:40:36.063Z,99756.05
2019-05-19T12:43:06.400Z,99762.99
2019-05-19T12:45:36.637Z,99748.80
2019-05-19T12:48:07.012Z,99735.55
2019-05-19T12:50:37.549Z,99737.52
2019-05-19T12:53:08.433Z,99732.20
2019-05-19T12:55:39.041Z,99736.08
2019-05-19T12:58:09.319Z,99733.58
2019-05-19T13:00:39.607Z,99731.63
2019-05-19T13:03:12.968Z,99722.66
2019-05-19T13:05:43.559Z,99721.53
2019-05-19T13:08:14.019Z,99719.03
2019-05-19T13:10:44.619Z,99714.20
2019-05-19T13:13:15.645Z,99718.08
2019-05-19T13:15:46.023Z,99713.04
2019-05-19T13:18:16.306Z,99707.84
2019-05-19T13:20:49.648Z,99705.73
2019-05-19T13:23:20.376Z,99720.52
2019-05-19T13:25:51.034Z,99718.95
2019-05-19T13:28:21.350Z,99711.20
2019-05-19T13:30:51.931Z,99715.44
2019-05-19T13:33:25.086Z,99719.85
2019-05-19T13:35:55.927Z,99719.75
2019-05-19T13:38:28.318Z,99715.28
2019-05-19T13:40:58.629Z,99720.63
2019-05-19T13:43:28.886Z,99716.44
2019-05-19T13:45:59.155Z,99715.86
2019-05-19T13:48:29.741Z,99713.34
2019-05-19T13:51:00.025Z,99716.39
2019-05-19T13:53:36.854Z,99715.00
2019-05-19T13:56:13.327Z,99703.37
2019-05-19T13:58:43.562Z,99700.22
2019-05-19T14:01:27.550Z,99706.47
2019-05-19T14:03:45.838Z,99709.80
2019-05-19T14:06:17.579Z,99699.52
2019-05-19T14:08:49.837Z,99713.19
2019-05-19T14:11:20.548Z,99706.03
2019-05-19T14:13:50.909Z,99697.52
2019-05-19T14:16:21.214Z,99685.44
2019-05-19T14:18:51.509Z,99685.17
2019-05-19T14:21:21.815Z,99693.04
2019-05-19T14:23:52.244Z,99695.41
2019-05-19T14:26:22.925Z,99693.56
2019-05-19T14:28:55.134Z,99695.12
2019-05-19T14:31:25.583Z,99700.44
2019-05-19T14:33:55.834Z,99703.52
2019-05-19T14:36:26.144Z,99709.09
2019-05-19T14:39:05.476Z,99698.94
2019-05-19T14:41:36.788Z,99700.37
2019-05-19T14:44:07.582Z,99694.72
2019-05-19T14:46:38.634Z,99695.11
2019-05-19T14:49:08.964Z,99693.48
2019-05-19T14:51:40.922Z,99692.52
2019-05-19T14:54:11.750Z,99696.32
2019-05-19T14:56:42.231Z,99687.20
2019-05-19T14:59:12.600Z,99692.48
2019-05-19T15:01:43.316Z,99696.08
2019-05-19T15:04:13.617Z,99699.62
2019-05-19T15:06:45.904Z,99704.48
2019-05-19T15:09:16.700Z,99715.55
2019-05-19T15:11:53.984Z,99713.80
2019-05-19T15:14:27.125Z,99714.55
2019-05-19T15:16:57.758Z,99717.05
2019-05-19T15:19:29.260Z,99719.94
2019-05-19T15:21:59.671Z,99707.98
2019-05-19T15:24:29.918Z,99714.13
2019-05-19T15:27:00.222Z,99722.81
2019-05-19T15:29:30.459Z,99728.54
2019-05-19T15:32:02.397Z,99720.59
2019-05-19T15:34:33.266Z,99728.81
2019-05-19T15:37:03.997Z,99725.02
2019-05-19T15:39:34.839Z,99721.27
2019-05-19T15:42:05.519Z,99726.20
2019-05-19T15:44:36.189Z,99715.50
2019-05-19T15:47:21.198Z,99716.96
2019-05-19T15:50:03.330Z,99709.66
2019-05-19T15:52:34.980Z,99707.32
2019-05-19T15:55:06.488Z,99706.83
2019-05-19T15:57:38.910Z,99706.28
2019-05-19T16:00:11.643Z,99711.63
2019-05-19T16:02:46.979Z,99710.53
2019-05-19T16:05:17.369Z,99713.39
2019-05-19T16:07:49.665Z,99703.54
2019-05-19T16:10:20.865Z,99705.44
2019-05-19T16:12:51.523Z,99705.75
2019-05-19T16:15:22.753Z,99704.48
2019-05-19T16:17:53.618Z,99696.76
2019-05-19T16:20:27.018Z,99696.50
2019-05-19T16:23:02.427Z,99697.27
2019-05-19T16:25:33.694Z,99686.26
2019-05-19T16:28:04.124Z,99685.91
2019-05-19T16:30:34.810Z,99683.38
2019-05-19T16:33:05.529Z,99677.92
2019-05-19T16:35:35.733Z,99685.16
2019-05-19T16:38:06.057Z,99678.05
2019-05-19T16:40:36.667Z,99673.31
2019-05-19T16:43:07.429Z,99668.89
2019-05-19T16:45:37.825Z,99665.05
2019-05-19T16:48:08.174Z,99659.84
2019-05-19T16:50:38.427Z,99663.06
2019-05-19T16:53:08.634Z,99660.59
2019-05-19T16:55:40.494Z,99660.08
2019-05-19T16:58:20.678Z,99656.94
2019-05-19T17:00:43.352Z,99663.39
2019-05-19T17:03:13.689Z,99664.77
2019-05-19T17:05:44.000Z,99655.16
2019-05-19T17:08:14.230Z,99656.05
2019-05-19T17:10:45.028Z,99657.28
2019-05-19T17:13:16.524Z,99658.17
2019-05-19T17:15:48.399Z,99648.73
2019-05-19T17:18:19.128Z,99651.17
2019-05-19T17:20:49.401Z,99655.08
2019-05-19T17:23:20.792Z,99655.38
2019-05-19T17:25:51.183Z,99651.65
2019-05-19T17:28:21.776Z,99654.44
2019-05-19T17:30:52.142Z,99659.05
2019-05-19T17:33:23.365Z,99661.12
2019-05-19T17:35:53.600Z,99663.34
2019-05-19T17:38:23.892Z,99661.17
2019-05-19T17:40:54.234Z,99659.88
2019-05-19T17:43:24.477Z,99666.08
2019-05-19T17:45:55.065Z,99660.92
2019-05-19T17:48:26.919Z,99668.45
2019-05-19T17:50:57.908Z,99661.00
2019-05-19T17:53:28.577Z,99658.86
2019-05-19T17:56:01.290Z,99667.70
2019-05-19T17:58:33.161Z,99664.36
2019-05-19T18:01:06.945Z,99662.95
2019-05-19T18:03:39.559Z,99668.42
2019-05-19T18:06:09.972Z,99664.03
2019-05-19T18:08:42.335Z,99664.44
2019-05-19T18:11:13.047Z,99666.64
2019-05-19T18:13:45.334Z,99655.57
2019-05-19T18:16:15.741Z,99649.20
2019-05-19T18:18:45.956Z,99656.81
2019-05-19T18:21:16.318Z,99656.59
2019-05-19T18:23:46.544Z,99656.23
2019-05-19T18:26:17.155Z,99654.69
2019-05-19T18:28:47.506Z,99650.23
2019-05-19T18:31:19.705Z,99645.81
2019-05-19T18:33:50.443Z,99654.38
2019-05-19T18:36:20.706Z,99654.61
2019-05-19T18:38:53.949Z,99648.10
2019-05-19T18:41:26.579Z,99649.30
2019-05-19T18:44:00.051Z,99650.48
2019-05-19T18:46:30.703Z,99644.33
2019-05-19T18:49:05.667Z,99648.88
2019-05-19T18:51:36.970Z,99653.08
2019-05-19T18:54:07.285Z,99656.77
2019-05-19T18:56:40.744Z,99657.20
2019-05-19T18:59:10.995Z,99663.69
2019-05-19T19:01:43.190Z,99658.95
2019-05-19T19:04:13.544Z,99656.36
2019-05-19T19:06:44.133Z,99647.77
2019-05-19T19:09:15.983Z,99646.28
2019-05-19T19:11:46.241Z,99666.08
2019-05-19T19:14:16.800Z,99667.29
2019-05-19T19:16:47.540Z,99667.52
2019-05-19T19:19:17.892Z,99669.05
2019-05-19T19:21:48.180Z,99674.41
2019-05-19T19:24:19.918Z,99669.70
2019-05-19T19:26:50.218Z,99672.05
2019-05-19T19:29:20.579Z,99672.59
2019-05-19T19:31:50.844Z,99682.75
2019-05-19T19:34:21.201Z,99681.05
2019-05-19T19:36:51.421Z,99682.69
2019-05-19T19:39:23.609Z,99681.22
2019-05-19T19:41:54.157Z,99684.17
2019-05-19T19:44:24.434Z,99686.39
2019-05-19T19:46:54.786Z,99689.25
2019-05-19T19:49:25.763Z,99688.77
2019-05-19T19:51:58.777Z,99683.59
2019-05-19T19:54:33.461Z,99691.33
2019-05-19T19:57:03.958Z,99689.58
2019-05-19T19:59:34.799Z,99684.03
2019-05-19T20:02:06.056Z,99680.25
2019-05-19T20:04:38.006Z,99683.20
2019-05-19T20:07:08.298Z,99682.88
2019-05-19T20:09:38.524Z,99681.97
2019-05-19T20:12:08.783Z,99683.09
2019-05-19T20:14:38.995Z,99682.03
2019-05-19T20:17:09.651Z,99685.73
2019-05-19T20:19:40.162Z,99690.00
2019-05-19T20:22:10.389Z,99686.14
2019-05-19T20:24:41.058Z,99676.73
2019-05-19T20:27:12.622Z,99678.42
2019-05-19T20:29:42.835Z,99674.16
2019-05-19T20:32:13.046Z,99678.96
2019-05-19T20:34:43.334Z,99674.63
2019-05-19T20:37:15.260Z,99675.47
2019-05-19T20:39:45.605Z,99669.34
2019-05-19T20:42:15.885Z,99676.80
2019-05-19T20:44:46.536Z,99667.98
2019-05-19T20:47:17.173Z,99667.82
2019-05-19T20:49:47.478Z,99660.58
2019-05-19T20:52:17.731Z,99656.95
2019-05-19T20:54:48.351Z,99654.68
2019-05-19T20:57:18.783Z,99653.10
2019-05-19T20:59:50.054Z,99650.25
2019-05-19T21:02:20.755Z,99652.42
2019-05-19T21:04:51.964Z,99654.16
2019-05-19T21:07:22.657Z,99656.38
2019-05-19T21:09:54.588Z,99645.92
2019-05-19T21:12:28.676Z,99652.92
2019-05-19T21:15:00.047Z,99645.28
2019-05-19T21:17:31.910Z,99647.18
2019-05-19T21:20:02.841Z,99654.84
2019-05-19T21:22:33.722Z,99655.52
2019-05-19T21:25:06.662Z,99657.22
2019-05-19T21:27:37.011Z,99654.73
2019-05-19T21:30:11.260Z,99660.61
2019-05-19T21:32:40.999Z,99661.98
2019-05-19T21:35:12.903Z,99646.92
2019-05-19T21:37:43.499Z,99655.95
2019-05-19T21:40:14.219Z,99658.95
2019-05-19T21:42:48.641Z,99652.78
2019-05-19T21:45:19.569Z,99660.38
2019-05-19T21:47:50.300Z,99654.05
2019-05-19T21:50:21.039Z,99656.17
2019-05-19T21:52:51.714Z,99655.53
2019-05-19T21:55:22.430Z,99652.81
2019-05-19T21:57:53.111Z,99649.80
2019-05-19T22:00:25.128Z,99649.53
2019-05-19T22:02:56.925Z,99647.93
2019-05-19T22:05:27.247Z,99639.45
2019-05-19T22:08:08.099Z,99638.81
2019-05-19T22:10:38.366Z,99639.08
2019-05-19T22:13:08.586Z,99630.56
2019-05-19T22:15:39.230Z,99632.16
2019-05-19T22:18:09.592Z,99627.69
2019-05-19T22:20:40.189Z,99625.07
2019-05-19T22:23:10.491Z,99622.64
2019-05-19T22:25:41.123Z,99627.03
2019-05-19T22:28:11.836Z,99625.61
2019-05-19T22:30:42.165Z,99629.83
2019-05-19T22:33:12.476Z,99623.38
2019-05-19T22:35:42.709Z,99621.91
2019-05-19T22:38:13.017Z,99616.84
2019-05-19T22:40:43.679Z,99615.52
2019-05-19T22:43:15.493Z,99607.01
2019-05-19T22:45:46.090Z,99610.59
2019-05-19T22:48:16.377Z,99613.40
2019-05-19T22:50:46.954Z,99609.14
2019-05-19T22:53:17.615Z,99603.30
2019-05-19T22:55:48.258Z,99600.03
2019-05-19T22:58:18.983Z,99601.36
2019-05-19T23:00:49.620Z,99601.78
2019-05-19T23:03:20.300Z,99604.16
2019-05-19T23:05:50.929Z,99596.37
2019-05-19T23:08:21.623Z,99589.03
2019-05-19T23:10:51.901Z,99599.13
2019-05-19T23:13:22.574Z,99598.13
2019-05-19T23:15:52.892Z,99599.91
2019-05-19T23:18:23.133Z,99603.98
2019-05-19T23:20:53.392Z,99615.13
2019-05-19T23:23:26.643Z,99611.22
2019-05-19T23:25:56.866Z,99609.11
2019-05-19T23:28:27.154Z,99595.64
2019-05-19T23:30:57.710Z,99597.54
2019-05-19T23:33:28.043Z,99604.83
2019-05-19T23:35:58.286Z,99605.41
2019-05-19T23:38:28.876Z,99602.13
2019-05-19T23:40:59.536Z,99602.61
2019-05-19T23:43:31.367Z,99601.02
2019-05-19T23:46:01.685Z,99614.86
2019-05-19T23:48:32.250Z,99603.98
2019-05-19T23:51:02.918Z,99602.88
2019-05-19T23:53:33.603Z,99598.39
2019-05-19T23:56:04.283Z,99592.36
2019-05-19T23:58:34.859Z,99600.66
